createdAt,value
2022-08-28T00:00:15.782Z,18.78
2022-08-28T00:02:42.815Z,18.74
2022-08-28T00:05:11.748Z,18.74
2022-08-28T00:07:38.675Z,18.75
2022-08-28T00:10:07.860Z,18.58
2022-08-28T00:12:35.952Z,18.71
2022-08-28T00:15:07.457Z,18.71
2022-08-28T00:17:36.563Z,18.73
2022-08-28T00:20:06.450Z,18.74
2022-08-28T00:22:33.118Z,18.73
2022-08-28T00:24:59.674Z,18.79
2022-08-28T00:27:45.169Z,18.80
2022-08-28T00:30:12.068Z,18.71
2022-08-28T00:32:38.658Z,18.81
2022-08-28T00:35:06.419Z,18.86
2022-08-28T00:37:33.137Z,18.92
2022-08-28T00:39:59.764Z,19.00
2022-08-28T00:42:26.455Z,19.01
2022-08-28T00:44:53.135Z,18.95
2022-08-28T00:47:19.735Z,18.95
2022-08-28T00:49:51.385Z,18.95
2022-08-28T00:52:20.327Z,18.87
2022-08-28T00:55:14.032Z,18.98
2022-08-28T00:57:45.018Z,18.87
2022-08-28T01:00:16.607Z,18.96
2022-08-28T01:02:44.058Z,18.89
2022-08-28T01:05:12.009Z,18.69
2022-08-28T01:07:39.328Z,18.79
2022-08-28T01:10:11.243Z,18.66
2022-08-28T01:12:38.470Z,18.79
2022-08-28T01:15:11.871Z,18.78
2022-08-28T01:17:44.171Z,18.84
2022-08-28T01:20:18.036Z,18.90
2022-08-28T01:22:59.319Z,18.89
2022-08-28T01:25:30.699Z,18.88
2022-08-28T01:27:59.219Z,18.87
2022-08-28T01:30:25.946Z,18.81
2022-08-28T01:32:55.676Z,18.74
2022-08-28T01:35:31.621Z,18.75
2022-08-28T01:37:58.917Z,18.73
2022-08-28T01:40:36.460Z,18.71
2022-08-28T01:43:28.447Z,18.68
2022-08-28T01:46:02.256Z,18.53
2022-08-28T01:48:32.144Z,18.67
2022-08-28T01:50:59.438Z,18.37
2022-08-28T01:53:32.660Z,18.58
2022-08-28T01:56:01.602Z,18.61
2022-08-28T01:58:29.217Z,18.58
2022-08-28T02:00:57.472Z,18.53
2022-08-28T02:03:24.654Z,18.66
2022-08-28T02:05:51.378Z,18.70
2022-08-28T02:08:18.329Z,18.70
2022-08-28T02:10:45.261Z,18.77
2022-08-28T02:13:13.733Z,18.77
2022-08-28T02:15:43.179Z,18.63
2022-08-28T02:18:10.515Z,18.75
2022-08-28T02:20:37.792Z,18.77
2022-08-28T02:23:06.078Z,18.75
2022-08-28T02:25:33.076Z,18.77
2022-08-28T02:27:59.776Z,18.74
2022-08-28T02:30:27.190Z,18.61
2022-08-28T02:32:54.441Z,18.67
2022-08-28T02:35:23.004Z,18.71
2022-08-28T02:37:50.025Z,18.80
2022-08-28T02:40:18.616Z,18.82
2022-08-28T02:42:45.261Z,18.81
2022-08-28T02:45:13.362Z,18.80
2022-08-28T02:47:42.469Z,18.72
2022-08-28T02:50:11.045Z,18.87
2022-08-28T02:52:37.812Z,18.76
2022-08-28T02:55:06.628Z,18.88
2022-08-28T02:57:33.182Z,18.93
2022-08-28T02:59:59.910Z,18.87
2022-08-28T03:02:26.719Z,18.76
2022-08-28T03:04:55.437Z,18.92
2022-08-28T03:07:22.755Z,18.95
2022-08-28T03:09:50.616Z,18.95
2022-08-28T03:12:17.459Z,18.95
2022-08-28T03:14:45.427Z,18.98
2022-08-28T03:17:12.010Z,18.97
2022-08-28T03:19:38.574Z,18.99
2022-08-28T03:22:05.242Z,18.97
2022-08-28T03:24:31.948Z,18.96
2022-08-28T03:26:58.700Z,19.00
2022-08-28T03:29:25.561Z,19.00
2022-08-28T03:31:52.769Z,19.05
2022-08-28T03:34:19.700Z,18.96
2022-08-28T03:36:46.468Z,18.98
2022-08-28T03:39:13.994Z,19.00
2022-08-28T03:41:40.838Z,19.00
2022-08-28T03:44:07.905Z,18.95
2022-08-28T03:46:35.156Z,18.90
2022-08-28T03:49:03.701Z,18.91
2022-08-28T03:51:32.739Z,18.92
2022-08-28T03:54:00.133Z,18.78
2022-08-28T03:56:28.279Z,18.90
2022-08-28T03:58:58.814Z,18.88
2022-08-28T04:01:26.218Z,18.90
2022-08-28T04:03:53.020Z,18.86
2022-08-28T04:06:20.163Z,18.84
2022-08-28T04:08:47.900Z,18.81
2022-08-28T04:11:14.835Z,18.63
2022-08-28T04:13:42.191Z,18.67
2022-08-28T04:16:12.717Z,18.83
2022-08-28T04:18:41.624Z,18.79
2022-08-28T04:21:11.741Z,18.82
2022-08-28T04:23:39.850Z,18.87
2022-08-28T04:26:08.315Z,18.88
2022-08-28T04:28:35.177Z,18.86
2022-08-28T04:31:02.701Z,18.87
2022-08-28T04:33:30.002Z,18.87
2022-08-28T04:35:56.987Z,18.84
2022-08-28T04:38:23.777Z,18.84
2022-08-28T04:40:50.364Z,18.71
2022-08-28T04:43:17.207Z,18.84
2022-08-28T04:45:45.942Z,18.84
2022-08-28T04:48:14.039Z,18.85
2022-08-28T04:50:45.592Z,18.85
2022-08-28T04:53:12.851Z,18.85
2022-08-28T04:55:54.153Z,18.83
2022-08-28T04:58:22.342Z,18.68
2022-08-28T05:00:52.409Z,18.80
2022-08-28T05:03:19.459Z,18.79
2022-08-28T05:05:48.877Z,18.81
2022-08-28T05:08:18.611Z,18.77
2022-08-28T05:10:46.954Z,18.76
2022-08-28T05:13:18.693Z,18.79
2022-08-28T05:15:50.851Z,18.80
2022-08-28T05:18:20.964Z,18.71
2022-08-28T05:20:48.825Z,18.77
2022-08-28T05:23:16.856Z,18.78
2022-08-28T05:25:46.454Z,18.80
2022-08-28T05:28:14.655Z,18.90
2022-08-28T05:30:42.095Z,18.91
2022-08-28T05:33:10.367Z,18.91
2022-08-28T05:35:39.435Z,18.82
2022-08-28T05:38:07.293Z,18.88
2022-08-28T05:40:34.726Z,18.81
2022-08-28T05:43:01.589Z,18.77
2022-08-28T05:45:28.231Z,18.74
2022-08-28T05:47:54.830Z,18.70
2022-08-28T05:50:21.590Z,18.69
2022-08-28T05:52:48.314Z,18.62
2022-08-28T05:55:14.920Z,18.69
2022-08-28T05:57:42.052Z,18.68
2022-08-28T06:00:13.710Z,18.82
2022-08-28T06:02:42.126Z,18.93
2022-08-28T06:05:13.217Z,19.05
2022-08-28T06:07:41.226Z,19.15
2022-08-28T06:10:10.589Z,19.32
2022-08-28T06:12:37.714Z,19.53
2022-08-28T06:15:05.692Z,19.67
2022-08-28T06:17:35.021Z,19.73
2022-08-28T06:20:02.221Z,19.75
2022-08-28T06:22:28.849Z,19.72
2022-08-28T06:24:55.466Z,19.69
2022-08-28T06:27:22.448Z,19.70
2022-08-28T06:29:50.503Z,19.73
2022-08-28T06:32:17.147Z,19.79
2022-08-28T06:34:43.779Z,19.71
2022-08-28T06:37:15.781Z,19.69
2022-08-28T06:39:42.315Z,19.68
2022-08-28T06:42:10.583Z,19.66
2022-08-28T06:44:39.033Z,19.60
2022-08-28T06:47:05.815Z,19.49
2022-08-28T06:49:34.413Z,19.44
2022-08-28T06:52:00.973Z,19.55
2022-08-28T06:54:30.982Z,19.64
2022-08-28T06:56:57.613Z,19.76
2022-08-28T06:59:24.112Z,19.86
2022-08-28T07:01:52.944Z,19.82
2022-08-28T07:04:19.920Z,19.90
2022-08-28T07:06:53.817Z,19.83
2022-08-28T07:09:21.913Z,19.80
2022-08-28T07:11:48.530Z,19.81
2022-08-28T07:14:15.126Z,19.87
2022-08-28T07:16:42.137Z,19.83
2022-08-28T07:19:11.993Z,20.04
2022-08-28T07:21:41.711Z,20.13
2022-08-28T07:24:10.543Z,20.26
2022-08-28T07:26:38.086Z,20.29
2022-08-28T07:29:10.451Z,20.43
2022-08-28T07:31:43.071Z,20.41
2022-08-28T07:34:11.246Z,20.57
2022-08-28T07:36:38.690Z,20.56
2022-08-28T07:39:07.165Z,20.64
2022-08-28T07:41:37.393Z,20.70
2022-08-28T07:44:22.745Z,20.61
2022-08-28T07:46:53.801Z,20.65
2022-08-28T07:49:20.387Z,20.91
2022-08-28T07:51:47.136Z,21.20
2022-08-28T07:54:16.901Z,21.81
2022-08-28T07:56:45.404Z,22.42
2022-08-28T07:59:13.991Z,22.86
2022-08-28T08:01:46.777Z,22.60
2022-08-28T08:04:16.015Z,22.31
2022-08-28T08:06:43.042Z,21.87
2022-08-28T08:09:12.870Z,21.78
2022-08-28T08:11:40.153Z,21.78
2022-08-28T08:14:07.452Z,21.99
2022-08-28T08:16:38.672Z,22.56
2022-08-28T08:19:05.951Z,22.98
2022-08-28T08:21:32.807Z,22.93
2022-08-28T08:23:59.564Z,22.80
2022-08-28T08:26:28.318Z,23.04
2022-08-28T08:28:56.061Z,23.12
2022-08-28T08:31:28.465Z,23.04
2022-08-28T08:33:58.420Z,23.15
2022-08-28T08:36:27.042Z,23.29
2022-08-28T08:38:59.091Z,23.42
2022-08-28T08:41:32.809Z,23.62
2022-08-28T08:44:35.349Z,23.81
2022-08-28T08:47:15.164Z,23.70
2022-08-28T08:49:49.045Z,23.85
2022-08-28T08:52:40.442Z,24.09
2022-08-28T08:55:25.405Z,24.24
2022-08-28T08:57:59.468Z,24.32
2022-08-28T09:00:27.496Z,24.25
2022-08-28T09:03:05.740Z,23.84
2022-08-28T09:06:01.742Z,23.17
2022-08-28T09:08:37.144Z,22.49
2022-08-28T09:11:17.980Z,22.52
2022-08-28T09:13:55.369Z,22.60
2022-08-28T09:16:31.641Z,22.52
2022-08-28T09:19:00.400Z,22.43
2022-08-28T09:21:31.488Z,22.42
2022-08-28T09:24:05.756Z,22.53
2022-08-28T09:26:39.049Z,22.49
2022-08-28T09:29:14.072Z,22.49
2022-08-28T09:31:44.426Z,22.57
2022-08-28T09:34:23.631Z,22.67
2022-08-28T09:36:51.580Z,22.61
2022-08-28T09:39:27.706Z,22.80
2022-08-28T09:42:42.892Z,22.88
2022-08-28T09:45:14.522Z,22.95
2022-08-28T09:47:59.721Z,22.88
2022-08-28T09:50:35.358Z,22.98
2022-08-28T09:53:11.645Z,23.04
2022-08-28T09:56:03.625Z,23.18
2022-08-28T09:58:54.762Z,23.33
2022-08-28T10:01:46.763Z,23.44
2022-08-28T10:04:39.714Z,23.29
2022-08-28T10:07:25.072Z,23.20
2022-08-28T10:10:17.930Z,23.27
2022-08-28T10:12:53.515Z,23.30
2022-08-28T10:15:58.415Z,23.52
2022-08-28T10:18:37.030Z,23.67
2022-08-28T10:21:25.409Z,23.81
2022-08-28T10:24:26.406Z,23.67
2022-08-28T10:27:32.045Z,23.72
2022-08-28T10:30:12.533Z,23.85
2022-08-28T10:32:45.211Z,23.81
2022-08-28T10:35:22.862Z,23.53
2022-08-28T10:38:08.791Z,23.39
2022-08-28T10:41:14.213Z,23.45
2022-08-28T10:43:50.006Z,23.51
2022-08-28T10:46:27.326Z,23.48
2022-08-28T10:49:07.219Z,23.70
2022-08-28T10:51:44.473Z,23.86
2022-08-28T10:54:30.360Z,23.84
2022-08-28T10:57:14.209Z,23.88
2022-08-28T10:59:42.315Z,24.00
2022-08-28T11:02:13.445Z,24.09
2022-08-28T11:04:40.521Z,24.10
2022-08-28T11:07:11.311Z,24.24
2022-08-28T11:09:42.592Z,24.31
2022-08-28T11:12:30.298Z,24.31
2022-08-28T11:14:56.866Z,24.34
2022-08-28T11:17:27.836Z,24.39
2022-08-28T11:20:13.976Z,24.53
2022-08-28T11:22:58.867Z,24.66
2022-08-28T11:25:43.529Z,24.73
2022-08-28T11:28:25.790Z,24.79
2022-08-28T11:31:01.261Z,24.69
2022-08-28T11:33:39.787Z,24.61
2022-08-28T11:36:19.829Z,24.34
2022-08-28T11:38:46.860Z,24.38
2022-08-28T11:41:27.390Z,24.39
2022-08-28T11:44:24.501Z,24.44
2022-08-28T11:46:55.339Z,24.60
2022-08-28T11:49:31.715Z,24.73
2022-08-28T11:52:22.654Z,24.79
2022-08-28T11:55:26.443Z,24.79
2022-08-28T12:00:57.955Z,25.10
2022-08-28T12:03:44.759Z,25.34
2022-08-28T12:06:13.343Z,25.52
2022-08-28T12:08:49.001Z,25.49
2022-08-28T12:11:40.499Z,25.47
2022-08-28T12:14:27.881Z,25.31
2022-08-28T12:17:03.732Z,25.22
2022-08-28T12:19:49.981Z,25.27
2022-08-28T12:22:26.416Z,25.36
2022-08-28T12:24:58.030Z,25.41
2022-08-28T12:27:25.813Z,25.65
2022-08-28T12:29:57.964Z,25.76
2022-08-28T12:32:42.597Z,25.70
2022-08-28T12:35:16.864Z,25.84
2022-08-28T12:38:01.037Z,25.91
2022-08-28T12:40:39.909Z,25.94
2022-08-28T12:43:15.312Z,25.87
2022-08-28T12:45:50.597Z,26.00
2022-08-28T12:48:25.017Z,25.95
2022-08-28T12:51:19.582Z,25.88
2022-08-28T12:53:52.181Z,25.99
2022-08-28T12:56:20.884Z,26.04
2022-08-28T12:58:48.884Z,26.06
2022-08-28T13:01:21.388Z,26.04
2022-08-28T13:04:04.152Z,26.02
2022-08-28T13:06:35.898Z,26.17
2022-08-28T13:09:25.678Z,26.15
2022-08-28T13:11:52.523Z,26.06
2022-08-28T13:14:40.452Z,26.20
2022-08-28T13:17:08.525Z,26.28
2022-08-28T13:19:35.890Z,26.27
2022-08-28T13:22:05.848Z,26.52
2022-08-28T13:24:35.369Z,26.69
2022-08-28T13:27:12.602Z,26.84
2022-08-28T13:29:51.119Z,26.89
2022-08-28T13:32:22.936Z,26.95
2022-08-28T13:35:07.958Z,26.69
2022-08-28T13:37:43.312Z,26.52
2022-08-28T13:40:30.350Z,26.71
2022-08-28T13:43:11.415Z,26.80
2022-08-28T13:45:42.652Z,26.83
2022-08-28T13:48:15.969Z,26.75
2022-08-28T13:50:46.697Z,26.65
2022-08-28T13:53:16.478Z,26.51
2022-08-28T13:55:43.088Z,26.57
2022-08-28T13:58:10.667Z,26.57
2022-08-28T14:00:41.899Z,26.26
2022-08-28T14:03:27.057Z,26.06
2022-08-28T14:05:54.358Z,26.10
2022-08-28T14:08:21.933Z,26.04
2022-08-28T14:10:48.789Z,26.04
2022-08-28T14:13:15.505Z,26.17
2022-08-28T14:15:42.121Z,26.23
2022-08-28T14:18:08.791Z,26.16
2022-08-28T14:20:37.558Z,26.03
2022-08-28T14:23:04.256Z,25.90
2022-08-28T14:25:32.270Z,25.98
2022-08-28T14:28:01.491Z,25.92
2022-08-28T14:30:28.933Z,25.92
2022-08-28T14:32:55.568Z,26.11
2022-08-28T14:35:22.206Z,26.10
2022-08-28T14:37:49.100Z,26.05
2022-08-28T14:40:16.233Z,26.04
2022-08-28T14:42:42.902Z,26.15
2022-08-28T14:45:09.913Z,26.22
2022-08-28T14:47:39.237Z,26.33
2022-08-28T14:50:06.676Z,26.33
2022-08-28T14:52:33.373Z,26.29
2022-08-28T14:55:01.038Z,26.37
2022-08-28T14:57:27.701Z,26.43
2022-08-28T14:59:54.262Z,26.42
2022-08-28T15:02:21.856Z,26.37
2022-08-28T15:04:48.569Z,26.38
2022-08-28T15:07:15.442Z,26.44
2022-08-28T15:09:43.149Z,26.47
2022-08-28T15:12:10.527Z,26.37
2022-08-28T15:14:37.366Z,26.37
2022-08-28T15:17:04.348Z,26.21
2022-08-28T15:19:31.296Z,26.35
2022-08-28T15:21:58.767Z,26.64
2022-08-28T15:24:29.870Z,26.47
2022-08-28T15:26:57.314Z,26.27
2022-08-28T15:29:23.994Z,26.18
2022-08-28T15:31:51.195Z,25.97
2022-08-28T15:34:22.337Z,25.88
2022-08-28T15:36:55.601Z,25.79
2022-08-28T15:39:45.715Z,25.69
2022-08-28T15:42:13.214Z,25.65
2022-08-28T15:44:40.850Z,25.77
2022-08-28T15:47:07.701Z,25.78
2022-08-28T15:49:46.646Z,25.76
2022-08-28T15:52:18.240Z,25.78
2022-08-28T15:54:44.795Z,25.82
2022-08-28T15:57:11.443Z,25.80
2022-08-28T15:59:49.815Z,25.70
2022-08-28T16:02:23.845Z,25.74
2022-08-28T16:04:51.872Z,25.68
2022-08-28T16:07:20.685Z,25.67
2022-08-28T16:09:48.148Z,25.65
2022-08-28T16:12:15.097Z,25.58
2022-08-28T16:14:41.906Z,25.68
2022-08-28T16:17:10.725Z,25.67
2022-08-28T16:19:41.364Z,25.62
2022-08-28T16:22:10.081Z,25.51
2022-08-28T16:24:37.147Z,25.32
2022-08-28T16:27:03.804Z,25.40
2022-08-28T16:29:33.108Z,25.38
2022-08-28T16:31:59.767Z,25.36
2022-08-28T16:34:31.352Z,25.35
2022-08-28T16:36:59.235Z,25.29
2022-08-28T16:39:26.584Z,25.23
2022-08-28T16:41:53.177Z,25.20
2022-08-28T16:44:22.074Z,25.00
2022-08-28T16:46:48.822Z,25.13
2022-08-28T16:49:15.413Z,25.18
2022-08-28T16:51:41.988Z,25.11
2022-08-28T16:54:08.644Z,25.01
2022-08-28T16:56:35.620Z,24.87
2022-08-28T16:59:02.348Z,24.92
2022-08-28T17:01:29.040Z,24.78
2022-08-28T17:03:56.430Z,24.82
2022-08-28T17:06:26.404Z,24.79
2022-08-28T17:08:56.983Z,24.70
2022-08-28T17:11:28.310Z,24.67
2022-08-28T17:13:55.558Z,24.61
2022-08-28T17:16:23.820Z,24.54
2022-08-28T17:18:52.967Z,24.46
2022-08-28T17:21:40.735Z,24.28
2022-08-28T17:24:09.395Z,24.35
2022-08-28T17:26:35.996Z,24.32
2022-08-28T17:29:03.404Z,24.24
2022-08-28T17:31:30.274Z,24.03
2022-08-28T17:33:57.099Z,23.96
2022-08-28T17:36:33.458Z,24.01
2022-08-28T17:39:05.746Z,23.95
2022-08-28T17:41:33.506Z,23.90
2022-08-28T17:44:00.736Z,23.79
2022-08-28T17:46:27.446Z,23.75
2022-08-28T17:48:56.098Z,23.72
2022-08-28T17:51:42.074Z,23.68
2022-08-28T17:54:18.287Z,23.64
2022-08-28T17:56:45.458Z,23.53
2022-08-28T17:59:12.150Z,23.47
2022-08-28T18:01:39.807Z,23.36
2022-08-28T18:04:06.526Z,23.35
2022-08-28T18:06:33.184Z,23.26
2022-08-28T18:09:00.584Z,23.23
2022-08-28T18:11:27.886Z,23.15
2022-08-28T18:13:54.681Z,23.27
2022-08-28T18:16:21.624Z,23.15
2022-08-28T18:18:48.294Z,23.12
2022-08-28T18:21:14.927Z,22.94
2022-08-28T18:23:41.630Z,22.94
2022-08-28T18:26:08.965Z,22.92
2022-08-28T18:28:36.319Z,22.88
2022-08-28T18:31:06.087Z,22.82
2022-08-28T18:33:33.745Z,22.82
2022-08-28T18:36:00.380Z,22.73
2022-08-28T18:38:34.927Z,22.55
2022-08-28T18:41:06.457Z,22.64
2022-08-28T18:43:33.403Z,22.57
2022-08-28T18:46:01.468Z,22.56
2022-08-28T18:48:28.782Z,22.49
2022-08-28T18:50:55.364Z,22.44
2022-08-28T18:53:22.751Z,22.39
2022-08-28T18:55:52.658Z,22.32
2022-08-28T18:58:20.990Z,22.19
2022-08-28T19:00:47.992Z,22.26
2022-08-28T19:03:14.658Z,22.21
2022-08-28T19:05:41.890Z,22.13
2022-08-28T19:08:08.520Z,22.14
2022-08-28T19:10:36.986Z,22.08
2022-08-28T19:13:05.628Z,22.00
2022-08-28T19:15:33.734Z,21.95
2022-08-28T19:18:01.435Z,21.88
2022-08-28T19:20:28.776Z,21.83
2022-08-28T19:22:56.462Z,21.81
2022-08-28T19:25:28.490Z,21.72
2022-08-28T19:27:58.928Z,21.63
2022-08-28T19:30:28.508Z,21.56
2022-08-28T19:32:55.195Z,21.46
2022-08-28T19:35:24.215Z,21.43
2022-08-28T19:37:52.185Z,21.23
2022-08-28T19:40:19.409Z,21.20
2022-08-28T19:42:46.315Z,21.30
2022-08-28T19:45:15.102Z,21.24
2022-08-28T19:47:42.745Z,21.18
2022-08-28T19:50:13.389Z,21.10
2022-08-28T19:52:40.769Z,21.02
2022-08-28T19:55:08.551Z,20.94
2022-08-28T19:57:35.209Z,20.90
2022-08-28T20:00:02.432Z,20.85
2022-08-28T20:02:29.548Z,20.88
2022-08-28T20:04:56.401Z,20.82
2022-08-28T20:07:25.055Z,20.62
2022-08-28T20:09:52.232Z,20.48
2022-08-28T20:12:19.294Z,20.63
2022-08-28T20:14:46.401Z,20.59
2022-08-28T20:17:14.035Z,20.53
2022-08-28T20:19:41.390Z,20.38
2022-08-28T20:22:08.203Z,20.50
2022-08-28T20:24:35.343Z,20.39
2022-08-28T20:27:02.053Z,20.29
2022-08-28T20:29:29.227Z,20.25
2022-08-28T20:31:56.575Z,20.28
2022-08-28T20:34:24.508Z,20.13
2022-08-28T20:36:51.356Z,20.17
2022-08-28T20:39:19.058Z,20.11
2022-08-28T20:41:46.701Z,20.04
2022-08-28T20:44:16.826Z,20.02
2022-08-28T20:46:43.972Z,19.94
2022-08-28T20:49:17.597Z,19.89
2022-08-28T20:51:56.986Z,19.90
2022-08-28T20:54:29.969Z,19.96
2022-08-28T20:56:58.554Z,19.93
2022-08-28T20:59:28.842Z,19.85
2022-08-28T21:02:02.449Z,19.82
2022-08-28T21:04:30.474Z,19.71
2022-08-28T21:06:57.614Z,19.70
2022-08-28T21:09:40.967Z,19.52
2022-08-28T21:12:11.685Z,19.58
2022-08-28T21:14:38.431Z,19.45
2022-08-28T21:17:06.466Z,19.43
2022-08-28T21:19:35.282Z,19.38
2022-08-28T21:22:05.195Z,19.35
2022-08-28T21:24:31.729Z,19.31
2022-08-28T21:26:59.312Z,19.34
2022-08-28T21:29:26.267Z,19.31
2022-08-28T21:31:53.176Z,19.26
2022-08-28T21:34:21.825Z,19.26
2022-08-28T21:36:50.559Z,19.23
2022-08-28T21:39:20.717Z,19.20
2022-08-28T21:41:48.468Z,19.19
2022-08-28T21:44:15.619Z,19.19
2022-08-28T21:46:42.259Z,19.01
2022-08-28T21:49:09.057Z,19.10
2022-08-28T21:51:36.044Z,19.02
2022-08-28T21:54:02.770Z,19.00
2022-08-28T21:56:29.398Z,19.00
2022-08-28T21:58:56.808Z,18.87
2022-08-28T22:01:26.091Z,18.73
2022-08-28T22:03:54.019Z,18.93
2022-08-28T22:06:22.844Z,18.91
2022-08-28T22:08:50.747Z,18.92
2022-08-28T22:11:21.094Z,18.50
2022-08-28T22:13:52.115Z,18.80
2022-08-28T22:16:19.714Z,18.83
2022-08-28T22:18:46.308Z,18.74
2022-08-28T22:21:39.297Z,18.72
2022-08-28T22:24:08.613Z,18.73
2022-08-28T22:26:35.367Z,18.73
2022-08-28T22:29:02.000Z,18.70
2022-08-28T22:31:29.537Z,18.67
2022-08-28T22:33:56.220Z,18.67
2022-08-28T22:36:22.817Z,18.67
2022-08-28T22:38:53.129Z,18.51
2022-08-28T22:41:20.466Z,18.58
2022-08-28T22:43:51.425Z,18.55
2022-08-28T22:46:20.645Z,18.60
2022-08-28T22:48:48.604Z,18.50
2022-08-28T22:51:18.547Z,18.28
2022-08-28T22:53:45.949Z,18.38
2022-08-28T22:56:13.549Z,18.33
2022-08-28T22:58:40.809Z,18.25
2022-08-28T23:01:12.558Z,18.32
2022-08-28T23:03:40.021Z,18.23
2022-08-28T23:06:06.859Z,18.29
2022-08-28T23:08:34.292Z,18.33
2022-08-28T23:11:01.729Z,18.32
2022-08-28T23:13:30.299Z,18.37
2022-08-28T23:15:56.995Z,18.35
2022-08-28T23:18:23.558Z,18.28
2022-08-28T23:20:50.473Z,18.23
2022-08-28T23:23:18.564Z,18.20
2022-08-28T23:25:45.192Z,18.13
2022-08-28T23:28:11.863Z,18.09
2022-08-28T23:30:39.190Z,18.01
2022-08-28T23:33:08.593Z,18.01
2022-08-28T23:35:36.190Z,18.05
2022-08-28T23:38:04.283Z,17.95
2022-08-28T23:40:33.238Z,18.05
2022-08-28T23:43:00.921Z,17.98
2022-08-28T23:45:27.563Z,18.12
2022-08-28T23:47:54.955Z,18.09
2022-08-28T23:50:23.261Z,18.03
2022-08-28T23:52:50.755Z,17.98
2022-08-28T23:55:19.136Z,17.95
2022-08-28T23:57:46.046Z,17.91
